Palatine Bridge, New York
Current Conditions -  °F | °C
As of 12:35 AM on Thursday 18 Dec 2014 (Local Time) from KNY0 Reporting Station
Overcast Overcast  
Wind Chill: 19°   Ceiling: 600
Heat Index: 31°   Visibility: 2.5mi
Dew Point: 29°   Wind: 16mph
Humidity: 94%   Direction: 270°W
Pressure: 29.8"   Gusts: 24mph
Location:  42.91°N, 74.57°W
Report Text: KNY0 180535Z AUTO 27014G21KT 2 1/2SM OVC006 M01/M02 A2980 RMK AO2 T10081017
Loading
Personal Weather Stations






























Interactive Weather Map New forecast layout! Learn more

10-Day Weather Forecast

Advertisements
Track Severe Weather on mobile